Time;durP1;ratioP1;P1;durP2;ratioP2;P2;SDS_P1;SDS_P2;PMS_P1;PMS_P2;Temp;Humidity;BMP_temperature;BMP_pressure;BME280_temperature;BME280_humidity;BME280_pressure;Samples;Min_cycle;Max_cycle;Signal;HPM_P1;HPM_P2
2023/06/23 01:55:38;;;;;;;;;;;;;;;;;;5096928;27;1739;-63
2023/06/23 01:58:05;;;;;;;;;;;;;;;;;;5130244;28;1733;-62
2023/06/23 02:00:31;;;;;;;;;;;;;;;;;;5133581;28;892;-62
2023/06/23 02:02:57;;;;;;;;;;;;;;;;;;5134031;28;928;-63
2023/06/23 02:05:24;;;;;;;;;;;;;;;;;;5115830;28;1114;-63
2023/06/23 02:07:51;;;;;;;;;;;;;;;;;;5133773;28;1070;-63
2023/06/23 02:10:17;;;;;;;;;;;;;;;;;;5133676;28;872;-63
2023/06/23 02:12:43;;;;;;;;;;;;;;;;;;5133755;28;1901;-63
2023/06/23 02:15:09;;;;;;;;;;;;;;;;;;5134010;28;932;-63
2023/06/23 02:17:35;;;;;;;;;;;;;;;;;;5115039;28;1083;-63
2023/06/23 02:20:05;;;;;;;;;;;;;;;;;;5134141;28;951;-64
2023/06/23 02:22:31;;;;;;;;;;;;;;;;;;5133677;28;1244;-63
2023/06/23 02:24:56;;;;;;;;;;;;;;;;;;5115572;28;1015;-63
2023/06/23 02:27:22;;;;;;;;;;;;;;;;;;5133755;28;1125;-63
2023/06/23 02:29:48;;;;;;;;;;;;;;;;;;5133275;28;1179;-63
2023/06/23 02:32:17;;;;;;;;;;;;;;;;;;5133697;28;1905;-63
2023/06/23 02:34:46;;;;;;;;;;;;;;;;;;5133599;28;869;-63
2023/06/23 02:37:12;;;;;;;;;;;;;;;;;;5133507;28;825;-63
2023/06/23 02:39:40;;;;;;;;;;;;;;;;;;5133709;28;864;-63
2023/06/23 02:42:06;;;;;;;;;;;;;;;;;;5133512;28;1070;-63
2023/06/23 02:44:36;;;;;;;;;;;;;;;;;;5133468;28;861;-63
2023/06/23 02:47:03;;;;;;;;;;;;;;;;;;5133055;28;964;-63
2023/06/23 02:49:30;;;;;;;;;;;;;;;;;;5133041;28;1031;-63
2023/06/23 02:51:58;;;;;;;;;;;;;;;;;;5133346;28;1926;-63
2023/06/23 02:54:23;;;;;;;;;;;;;;;;;;5133267;28;944;-63
2023/06/23 02:56:51;;;;;;;;;;;;;;;;;;5132983;28;1207;-63
2023/06/23 02:59:18;;;;;;;;;;;;;;;;;;5133118;28;887;-63
2023/06/23 03:01:45;;;;;;;;;;;;;;;;;;5135111;27;1099;-63
2023/06/23 03:04:11;;;;;;;;;;;;;;;;;;5137201;27;921;-63
2023/06/23 03:06:37;;;;;;;;;;;;;;;;;;5136465;27;869;-63
2023/06/23 03:09:03;;;;;;;;;;;;;;;;;;5136878;27;1002;-63
2023/06/23 03:11:29;;;;;;;;;;;;;;;;;;5136188;27;1913;-63
2023/06/23 03:13:54;;;;;;;;;;;;;;;;;;5136665;27;853;-63
2023/06/23 03:16:25;;;;;;;;;;;;;;;;;;5118584;27;1047;-63
2023/06/23 03:18:57;;;;;;;;;;;;;;;;;;5136635;27;1019;-63
2023/06/23 03:21:23;;;;;;;;;;;;;;;;;;5118085;27;865;-63
2023/06/23 03:23:50;;;;;;;;;;;;;;;;;;5136584;27;896;-63
2023/06/23 03:26:16;;;;;;;;;;;;;;;;;;5136764;27;836;-63
2023/06/23 03:28:41;;;;;;;;;;;;;;;;;;5136618;27;790;-63
2023/06/23 03:31:07;;;;;;;;;;;;;;;;;;5136395;27;1901;-63
2023/06/23 03:33:34;;;;;;;;;;;;;;;;;;5136191;27;1043;-63
2023/06/23 03:36:17;;;;;;;;;;;;;;;;;;5136173;27;894;-63
2023/06/23 03:38:45;;;;;;;;;;;;;;;;;;5136584;27;916;-63
2023/06/23 03:41:11;;;;;;;;;;;;;;;;;;5136548;27;837;-63
2023/06/23 03:43:47;;;;;;;;;;;;;;;;;;5135646;27;972;-62
2023/06/23 03:46:15;;;;;;;;;;;;;;;;;;5135730;27;1099;-63
2023/06/23 03:48:42;;;;;;;;;;;;;;;;;;5135615;27;865;-63
2023/06/23 03:51:10;;;;;;;;;;;;;;;;;;5136193;27;1968;-63
2023/06/23 03:53:36;;;;;;;;;;;;;;;;;;5117487;27;944;-62
2023/06/23 03:56:03;;;;;;;;;;;;;;;;;;5135560;27;1337;-62
2023/06/23 03:58:29;;;;;;;;;;;;;;;;;;5135463;27;928;-63
2023/06/23 04:00:55;;;;;;;;;;;;;;;;;;5135795;27;833;-63
2023/06/23 04:03:21;;;;;;;;;;;;;;;;;;5135833;27;872;-63
2023/06/23 04:05:48;;;;;;;;;;;;;;;;;;5135719;27;1015;-63
2023/06/23 04:08:15;;;;;;;;;;;;;;;;;;5135554;27;860;-63
2023/06/23 04:10:40;;;;;;;;;;;;;;;;;;5135610;27;833;-62
2023/06/23 04:13:07;;;;;;;;;;;;;;;;;;5135135;27;1894;-62
2023/06/23 04:15:33;;;;;;;;;;;;;;;;;;5134637;27;1012;-62
2023/06/23 04:18:01;;;;;;;;;;;;;;;;;;5135630;27;916;-61
2023/06/23 04:20:28;;;;;;;;;;;;;;;;;;5135218;27;1004;-61
2023/06/23 04:22:53;;;;;;;;;;;;;;;;;;5135391;27;995;-62
2023/06/23 04:25:19;;;;;;;;;;;;;;;;;;5135352;27;964;-62
2023/06/23 04:27:46;;;;;;;;;;;;;;;;;;5134673;27;1023;-62
2023/06/23 04:30:12;;;;;;;;;;;;;;;;;;5135367;27;881;-62
2023/06/23 04:32:38;;;;;;;;;;;;;;;;;;5134782;27;1984;-62
2023/06/23 04:35:04;;;;;;;;;;;;;;;;;;5135134;27;806;-62
2023/06/23 04:37:38;;;;;;;;;;;;;;;;;;5134901;27;833;-62
2023/06/23 04:40:09;;;;;;;;;;;;;;;;;;5135032;27;1023;-63
2023/06/23 04:42:44;;;;;;;;;;;;;;;;;;5134204;27;901;-63
2023/06/23 04:45:13;;;;;;;;;;;;;;;;;;5134889;27;925;-62
2023/06/23 04:47:40;;;;;;;;;;;;;;;;;;5134458;27;983;-62
2023/06/23 04:50:07;;;;;;;;;;;;;;;;;;5116559;27;855;-63
2023/06/23 04:52:34;;;;;;;;;;;;;;;;;;5134565;27;1897;-62
2023/06/23 04:55:01;;;;;;;;;;;;;;;;;;5135206;27;892;-63
2023/06/23 04:57:31;;;;;;;;;;;;;;;;;;5134915;27;1229;-62
2023/06/23 04:59:58;;;;;;;;;;;;;;;;;;5134705;27;1687;-63
2023/06/23 05:02:25;;;;;;;;;;;;;;;;;;5135181;27;837;-63
2023/06/23 05:04:51;;;;;;;;;;;;;;;;;;5134942;27;880;-62
2023/06/23 05:07:18;;;;;;;;;;;;;;;;;;5135214;27;824;-62
2023/06/23 05:09:46;;;;;;;;;;;;;;;;;;5134611;27;876;-62
2023/06/23 05:12:11;;;;;;;;;;;;;;;;;;5134125;27;1985;-63
2023/06/23 05:14:38;;;;;;;;;;;;;;;;;;5134231;27;825;-62
2023/06/23 05:17:04;;;;;;;;;;;;;;;;;;5134193;27;825;-62
2023/06/23 05:19:31;;;;;;;;;;;;;;;;;;5134502;27;845;-62
2023/06/23 05:21:58;;;;;;;;;;;;;;;;;;5134083;27;1079;-62
2023/06/23 05:24:25;;;;;;;;;;;;;;;;;;5133968;27;975;-62
2023/06/23 05:26:52;;;;;;;;;;;;;;;;;;5115739;27;770;-62
2023/06/23 05:29:19;;;;;;;;;;;;;;;;;;5134860;27;991;-63
2023/06/23 05:31:44;;;;;;;;;;;;;;;;;;5134759;27;1901;-62
2023/06/23 05:34:12;;;;;;;;;;;;;;;;;;5116260;27;881;-63
2023/06/23 05:36:38;;;;;;;;;;;;;;;;;;5116208;27;884;-63
2023/06/23 05:39:05;;;;;;;;;;;;;;;;;;5134404;27;917;-62
2023/06/23 05:41:31;;;;;;;;;;;;;;;;;;5133872;27;936;-63
2023/06/23 05:43:56;;;;;;;;;;;;;;;;;;5134772;27;1007;-63
2023/06/23 05:46:23;;;;;;;;;;;;;;;;;;5134550;27;955;-62
2023/06/23 05:48:51;;;;;;;;;;;;;;;;;;5133912;27;873;-62
2023/06/23 05:51:19;;;;;;;;;;;;;;;;;;5133707;27;1972;-62
2023/06/23 05:53:48;;;;;;;;;;;;;;;;;;5115242;27;1350;-62
2023/06/23 05:56:15;;;;;;;;;;;;;;;;;;5133883;28;1097;-62
2023/06/23 05:58:43;;;;;;;;;;;;;;;;;;5133971;28;872;-62
2023/06/23 06:01:10;;;;;;;;;;;;;;;;;;5134095;28;936;-63
2023/06/23 06:03:37;;;;;;;;;;;;;;;;;;5115936;28;850;-63
2023/06/23 06:06:04;;;;;;;;;;;;;;;;;;5134444;28;833;-63
2023/06/23 06:08:32;;;;;;;;;;;;;;;;;;5133874;28;876;-63
2023/06/23 06:10:58;;;;;;;;;;;;;;;;;;5133853;28;913;-64
2023/06/23 06:13:24;;;;;;;;;;;;;;;;;;5134706;28;1917;-63
2023/06/23 06:15:52;;;;;;;;;;;;;;;;;;5133986;28;850;-63
2023/06/23 06:18:18;;;;;;;;;;;;;;;;;;5133685;28;825;-63
2023/06/23 06:20:44;;;;;;;;;;;;;;;;;;5134375;28;852;-64
2023/06/23 06:23:11;;;;;;;;;;;;;;;;;;5133656;28;1039;-64
2023/06/23 06:25:37;;;;;;;;;;;;;;;;;;5133713;28;834;-63
2023/06/23 06:28:07;;;;;;;;;;;;;;;;;;5133805;28;904;-63
2023/06/23 06:30:34;;;;;;;;;;;;;;;;;;5132775;28;952;-63
2023/06/23 06:33:01;;;;;;;;;;;;;;;;;;5132903;28;1956;-63
2023/06/23 06:35:28;;;;;;;;;;;;;;;;;;5133534;27;925;-63
2023/06/23 06:37:54;;;;;;;;;;;;;;;;;;5137003;27;810;-62
2023/06/23 06:40:24;;;;;;;;;;;;;;;;;;5137853;27;1011;-63
2023/06/23 06:42:49;;;;;;;;;;;;;;;;;;5137269;27;873;-62
2023/06/23 06:45:14;;;;;;;;;;;;;;;;;;5137128;27;999;-63
2023/06/23 06:47:43;;;;;;;;;;;;;;;;;;5136924;27;912;-63
2023/06/23 06:50:09;;;;;;;;;;;;;;;;;;5137678;27;845;-63
2023/06/23 06:52:36;;;;;;;;;;;;;;;;;;5137428;27;1905;-63
2023/06/23 06:55:03;;;;;;;;;;;;;;;;;;5136976;27;869;-64
2023/06/23 06:57:28;;;;;;;;;;;;;;;;;;5136959;27;1136;-64
2023/06/23 06:59:53;;;;;;;;;;;;;;;;;;5137210;27;927;-63
2023/06/23 07:02:19;;;;;;;;;;;;;;;;;;5137583;27;782;-64
2023/06/23 07:04:44;;;;;;;;;;;;;;;;;;5136742;27;982;-63
2023/06/23 07:07:13;;;;;;;;;;;;;;;;;;5137264;27;829;-63
2023/06/23 07:09:38;;;;;;;;;;;;;;;;;;5136629;27;899;-63
2023/06/23 07:12:05;;;;;;;;;;;;;;;;;;5136435;27;1917;-63
2023/06/23 07:14:31;;;;;;;;;;;;;;;;;;5137070;27;813;-64
2023/06/23 07:16:56;;;;;;;;;;;;;;;;;;5136832;27;916;-63
2023/06/23 07:19:21;;;;;;;;;;;;;;;;;;5136538;27;699;-64
2023/06/23 07:21:46;;;;;;;;;;;;;;;;;;5136466;27;865;-64
2023/06/23 07:24:12;;;;;;;;;;;;;;;;;;5117904;27;912;-63
2023/06/23 07:26:37;;;;;;;;;;;;;;;;;;5135781;27;996;-64
2023/06/23 07:29:03;;;;;;;;;;;;;;;;;;5135808;27;888;-64
2023/06/23 07:31:28;;;;;;;;;;;;;;;;;;5136229;27;1975;-63
2023/06/23 07:33:53;;;;;;;;;;;;;;;;;;5117955;27;1580;-64
2023/06/23 07:36:18;;;;;;;;;;;;;;;;;;5136218;27;873;-64
2023/06/23 07:38:44;;;;;;;;;;;;;;;;;;5117756;27;888;-64
2023/06/23 07:41:09;;;;;;;;;;;;;;;;;;5118155;27;852;-63
2023/06/23 07:43:34;;;;;;;;;;;;;;;;;;5136069;27;905;-64
2023/06/23 07:45:59;;;;;;;;;;;;;;;;;;5136186;27;849;-63
2023/06/23 07:48:25;;;;;;;;;;;;;;;;;;5136041;27;979;-64
2023/06/23 07:50:50;;;;;;;;;;;;;;;;;;5136433;27;892;-64
2023/06/23 07:53:15;;;;;;;;;;;;;;;;;;5136780;27;1890;-64
2023/06/23 07:55:41;;;;;;;;;;;;;;;;;;5118218;27;909;-64
2023/06/23 07:58:06;;;;;;;;;;;;;;;;;;5135936;27;1078;-64
2023/06/23 08:00:31;;;;;;;;;;;;;;;;;;5135778;27;830;-64
2023/06/23 08:02:57;;;;;;;;;;;;;;;;;;5135859;27;912;-64
2023/06/23 08:05:23;;;;;;;;;;;;;;;;;;5136630;27;1526;-64
2023/06/23 08:07:48;;;;;;;;;;;;;;;;;;5135870;27;849;-63
2023/06/23 08:10:14;;;;;;;;;;;;;;;;;;5135837;27;893;-64
2023/06/23 08:12:39;;;;;;;;;;;;;;;;;;5136283;27;1905;-64
2023/06/23 08:15:05;;;;;;;;;;;;;;;;;;5135834;27;842;-64
2023/06/23 08:17:30;;;;;;;;;;;;;;;;;;5135370;27;922;-64
2023/06/23 08:19:56;;;;;;;;;;;;;;;;;;5135525;27;1087;-64
2023/06/23 08:22:21;;;;;;;;;;;;;;;;;;5135854;27;850;-63
2023/06/23 08:24:46;;;;;;;;;;;;;;;;;;5135198;27;1063;-63
2023/06/23 08:27:12;;;;;;;;;;;;;;;;;;5135311;27;853;-64
2023/06/23 08:29:38;;;;;;;;;;;;;;;;;;5135406;27;884;-64
2023/06/23 08:32:04;;;;;;;;;;;;;;;;;;5134968;27;1902;-63
2023/06/23 08:34:29;;;;;;;;;;;;;;;;;;5135171;27;1240;-63
2023/06/23 08:36:54;;;;;;;;;;;;;;;;;;5135306;27;1079;-63
2023/06/23 08:39:20;;;;;;;;;;;;;;;;;;5134936;27;1043;-64
2023/06/23 08:41:48;;;;;;;;;;;;;;;;;;5135059;27;892;-64
2023/06/23 08:44:14;;;;;;;;;;;;;;;;;;5134828;27;944;-64
2023/06/23 08:46:40;;;;;;;;;;;;;;;;;;5134769;27;1100;-64
2023/06/23 08:49:07;;;;;;;;;;;;;;;;;;5134354;27;836;-64
2023/06/23 08:51:32;;;;;;;;;;;;;;;;;;5134719;27;1897;-64
2023/06/23 08:53:58;;;;;;;;;;;;;;;;;;5134550;27;869;-64
2023/06/23 08:56:25;;;;;;;;;;;;;;;;;;5134430;27;1020;-64
2023/06/23 08:58:50;;;;;;;;;;;;;;;;;;5133558;27;885;-64
2023/06/23 09:01:15;;;;;;;;;;;;;;;;;;5134627;27;836;-64
2023/06/23 09:03:41;;;;;;;;;;;;;;;;;;5135088;27;829;-64
2023/06/23 09:06:07;;;;;;;;;;;;;;;;;;5134359;27;1039;-63
2023/06/23 09:08:33;;;;;;;;;;;;;;;;;;5134644;27;1116;-63
2023/06/23 09:10:58;;;;;;;;;;;;;;;;;;5134295;27;857;-63
2023/06/23 09:13:29;;;;;;;;;;;;;;;;;;5134865;27;1913;-63
2023/06/23 09:15:54;;;;;;;;;;;;;;;;;;5116690;27;904;-63
2023/06/23 09:18:20;;;;;;;;;;;;;;;;;;5134775;27;870;-63
2023/06/23 09:20:47;;;;;;;;;;;;;;;;;;5134914;27;901;-64
2023/06/23 09:23:13;;;;;;;;;;;;;;;;;;5134046;27;841;-64
2023/06/23 09:25:44;;;;;;;;;;;;;;;;;;5134456;27;885;-63
2023/06/23 09:28:29;;;;;;;;;;;;;;;;;;5134160;27;953;-64
2023/06/23 09:31:14;;;;;;;;;;;;;;;;;;5134485;27;937;-64
2023/06/23 09:33:46;;;;;;;;;;;;;;;;;;5134768;27;888;-64
2023/06/23 09:36:11;;;;;;;;;;;;;;;;;;5134473;27;1677;-64
2023/06/23 09:38:37;;;;;;;;;;;;;;;;;;5134633;27;920;-64
2023/06/23 09:41:13;;;;;;;;;;;;;;;;;;5134745;27;822;-64
2023/06/23 09:43:42;;;;;;;;;;;;;;;;;;5134568;27;896;-64
2023/06/23 09:46:08;;;;;;;;;;;;;;;;;;5133625;27;1001;-63
2023/06/23 09:48:33;;;;;;;;;;;;;;;;;;5134754;27;948;-63
2023/06/23 09:50:59;;;;;;;;;;;;;;;;;;5134756;27;849;-64
2023/06/23 09:53:24;;;;;;;;;;;;;;;;;;5135273;27;1905;-64
2023/06/23 09:55:50;;;;;;;;;;;;;;;;;;5133930;27;1016;-64
2023/06/23 09:58:16;;;;;;;;;;;;;;;;;;5098591;28;1820;-64
2023/06/23 10:00:41;;;;;;;;;;;;;;;;;;5115073;28;1495;-64
2023/06/23 10:03:06;;;;;;;;;;;;;;;;;;5133454;28;868;-64
2023/06/23 10:05:35;;;;;;;;;;;;;;;;;;5133757;28;948;-64
2023/06/23 10:08:07;;;;;;;;;;;;;;;;;;5133663;28;1019;-64
2023/06/23 10:10:33;;;;;;;;;;;;;;;;;;5135588;27;853;-63
2023/06/23 10:12:58;;;;;;;;;;;;;;;;;;5138049;27;1902;-64
2023/06/23 10:15:23;;;;;;;;;;;;;;;;;;5138239;27;893;-64
2023/06/23 10:17:50;;;;;;;;;;;;;;;;;;5137904;27;822;-64
2023/06/23 10:20:15;;;;;;;;;;;;;;;;;;5137414;27;841;-63
2023/06/23 10:22:41;;;;;;;;;;;;;;;;;;5137655;27;932;-64
2023/06/23 10:25:09;;;;;;;;;;;;;;;;;;5137718;27;943;-64
2023/06/23 10:27:35;;;;;;;;;;;;;;;;;;5137945;27;856;-64
2023/06/23 10:30:02;;;;;;;;;;;;;;;;;;5137440;27;895;-64
2023/06/23 10:32:29;;;;;;;;;;;;;;;;;;5137714;27;1959;-62
2023/06/23 10:34:58;;;;;;;;;;;;;;;;;;5138232;27;892;-64
2023/06/23 10:37:26;;;;;;;;;;;;;;;;;;5137745;27;1011;-64
2023/06/23 10:39:55;;;;;;;;;;;;;;;;;;5137410;27;932;-64
2023/06/23 10:42:21;;;;;;;;;;;;;;;;;;5137896;27;1345;-64
2023/06/23 10:44:48;;;;;;;;;;;;;;;;;;5137590;27;809;-64
2023/06/23 10:47:13;;;;;;;;;;;;;;;;;;5137607;27;794;-64
2023/06/23 10:49:38;;;;;;;;;;;;;;;;;;5137335;27;817;-64
2023/06/23 10:52:04;;;;;;;;;;;;;;;;;;5137301;27;1894;-64
2023/06/23 10:54:30;;;;;;;;;;;;;;;;;;5137035;27;837;-64
2023/06/23 10:56:56;;;;;;;;;;;;;;;;;;5136529;27;1625;-64
2023/06/23 10:59:21;;;;;;;;;;;;;;;;;;5137275;27;888;-64
2023/06/23 11:02:03;;;;;;;;;;;;;;;;;;5137063;27;921;-64
2023/06/23 11:04:29;;;;;;;;;;;;;;;;;;5137414;27;869;-64
2023/06/23 11:07:07;;;;;;;;;;;;;;;;;;5136900;27;1114;-64
2023/06/23 11:09:45;;;;;;;;;;;;;;;;;;5119102;27;1037;-64
2023/06/23 11:12:29;;;;;;;;;;;;;;;;;;5136988;27;1910;-64
2023/06/23 11:15:10;;;;;;;;;;;;;;;;;;5137466;27;979;-64
2023/06/23 11:17:39;;;;;;;;;;;;;;;;;;5137295;27;872;-64
2023/06/23 11:20:08;;;;;;;;;;;;;;;;;;5136738;27;845;-64
2023/06/23 11:22:33;;;;;;;;;;;;;;;;;;5135908;27;948;-64
2023/06/23 11:25:03;;;;;;;;;;;;;;;;;;5136659;27;983;-64
2023/06/23 11:27:28;;;;;;;;;;;;;;;;;;5136848;27;944;-63
2023/06/23 11:30:12;;;;;;;;;;;;;;;;;;5136798;27;944;-64
2023/06/23 11:32:40;;;;;;;;;;;;;;;;;;5136670;27;1959;-65
2023/06/23 11:35:07;;;;;;;;;;;;;;;;;;5135958;27;1149;-63
2023/06/23 11:37:33;;;;;;;;;;;;;;;;;;5136641;27;908;-63
2023/06/23 11:40:00;;;;;;;;;;;;;;;;;;5136674;27;841;-63
2023/06/23 11:42:26;;;;;;;;;;;;;;;;;;5118574;27;916;-65
2023/06/23 11:44:54;;;;;;;;;;;;;;;;;;5117673;27;1197;-64
2023/06/23 11:47:26;;;;;;;;;;;;;;;;;;5136200;27;944;-64
2023/06/23 11:49:51;;;;;;;;;;;;;;;;;;5136832;27;864;-64
2023/06/23 11:52:17;;;;;;;;;;;;;;;;;;5136274;27;1902;-64
2023/06/23 11:54:45;;;;;;;;;;;;;;;;;;5136355;27;908;-64
2023/06/23 11:57:10;;;;;;;;;;;;;;;;;;5117089;27;1095;-65
2023/06/23 11:59:36;;;;;;;;;;;;;;;;;;5136610;27;888;-63
2023/06/23 12:02:02;;;;;;;;;;;;;;;;;;5116851;27;1268;-64
2023/06/23 12:04:27;;;;;;;;;;;;;;;;;;5135710;27;980;-63
2023/06/23 12:06:53;;;;;;;;;;;;;;;;;;5135724;27;865;-63
2023/06/23 12:09:21;;;;;;;;;;;;;;;;;;5135657;27;1022;-63
2023/06/23 12:11:47;;;;;;;;;;;;;;;;;;5135615;27;1901;-63
2023/06/23 12:14:12;;;;;;;;;;;;;;;;;;5135541;27;1077;-63
2023/06/23 12:16:38;;;;;;;;;;;;;;;;;;5135386;27;919;-64
2023/06/23 12:19:03;;;;;;;;;;;;;;;;;;5135458;27;916;-64
2023/06/23 12:21:28;;;;;;;;;;;;;;;;;;5135760;27;841;-64
2023/06/23 12:23:56;;;;;;;;;;;;;;;;;;5135893;27;948;-64
2023/06/23 12:26:21;;;;;;;;;;;;;;;;;;5135075;27;810;-64
2023/06/23 12:28:46;;;;;;;;;;;;;;;;;;5135327;27;924;-64
2023/06/23 12:31:12;;;;;;;;;;;;;;;;;;5134835;27;842;-64
2023/06/23 12:33:40;;;;;;;;;;;;;;;;;;5116644;27;1975;-64
2023/06/23 12:36:07;;;;;;;;;;;;;;;;;;5135845;27;837;-64
2023/06/23 12:38:36;;;;;;;;;;;;;;;;;;5134948;27;916;-65
2023/06/23 12:41:14;;;;;;;;;;;;;;;;;;5135196;27;932;-64
2023/06/23 12:43:39;;;;;;;;;;;;;;;;;;5135292;27;798;-64
2023/06/23 12:46:05;;;;;;;;;;;;;;;;;;5134943;27;913;-64
2023/06/23 12:48:30;;;;;;;;;;;;;;;;;;5135346;27;900;-65
2023/06/23 12:50:56;;;;;;;;;;;;;;;;;;5134960;27;869;-64
2023/06/23 12:53:22;;;;;;;;;;;;;;;;;;5133006;27;1895;-63
2023/06/23 12:55:47;;;;;;;;;;;;;;;;;;5133043;27;1019;-63
2023/06/23 12:58:12;;;;;;;;;;;;;;;;;;5132274;27;1397;-62
2023/06/23 13:00:38;;;;;;;;;;;;;;;;;;5114890;27;741;-65
2023/06/23 13:03:04;;;;;;;;;;;;;;;;;;5132841;27;885;-64
2023/06/23 13:05:30;;;;;;;;;;;;;;;;;;5132750;27;901;-64
2023/06/23 13:07:56;;;;;;;;;;;;;;;;;;5134570;27;857;-64
2023/06/23 13:10:22;;;;;;;;;;;;;;;;;;5134368;27;931;-64
2023/06/23 13:12:47;;;;;;;;;;;;;;;;;;5134546;27;1914;-64
2023/06/23 13:15:12;;;;;;;;;;;;;;;;;;5134235;27;916;-64
2023/06/23 13:17:38;;;;;;;;;;;;;;;;;;5134624;27;833;-64
2023/06/23 13:20:04;;;;;;;;;;;;;;;;;;5134453;27;849;-64
2023/06/23 13:22:29;;;;;;;;;;;;;;;;;;5133929;27;877;-64
2023/06/23 13:24:56;;;;;;;;;;;;;;;;;;5134399;27;1023;-64
2023/06/23 13:27:22;;;;;;;;;;;;;;;;;;5133786;27;881;-64
2023/06/23 13:29:47;;;;;;;;;;;;;;;;;;5134350;27;928;-64
2023/06/23 13:32:13;;;;;;;;;;;;;;;;;;5133897;27;1901;-64
2023/06/23 13:34:38;;;;;;;;;;;;;;;;;;5134352;27;1779;-64
2023/06/23 13:37:03;;;;;;;;;;;;;;;;;;5134166;27;928;-64
2023/06/23 13:39:29;;;;;;;;;;;;;;;;;;5134350;27;841;-65
2023/06/23 13:41:54;;;;;;;;;;;;;;;;;;5134398;27;1011;-64
2023/06/23 13:44:21;;;;;;;;;;;;;;;;;;5133943;27;1023;-63
2023/06/23 13:46:46;;;;;;;;;;;;;;;;;;5133816;27;861;-64
2023/06/23 13:49:14;;;;;;;;;;;;;;;;;;5134093;27;1086;-63
2023/06/23 13:51:40;;;;;;;;;;;;;;;;;;5134337;27;1897;-63
2023/06/23 13:54:05;;;;;;;;;;;;;;;;;;5133868;27;908;-65
2023/06/23 13:56:31;;;;;;;;;;;;;;;;;;5133686;27;1015;-63
2023/06/23 13:58:56;;;;;;;;;;;;;;;;;;5133821;27;1330;-64
2023/06/23 14:01:21;;;;;;;;;;;;;;;;;;5133466;28;884;-64
2023/06/23 14:03:47;;;;;;;;;;;;;;;;;;5133482;28;862;-64
2023/06/23 14:06:12;;;;;;;;;;;;;;;;;;5133321;28;885;-64
2023/06/23 14:08:40;;;;;;;;;;;;;;;;;;5134110;28;909;-64
2023/06/23 14:11:06;;;;;;;;;;;;;;;;;;5133980;28;849;-64
2023/06/23 14:13:31;;;;;;;;;;;;;;;;;;5133425;28;1913;-64
2023/06/23 14:15:56;;;;;;;;;;;;;;;;;;5134075;28;716;-64
2023/06/23 14:18:21;;;;;;;;;;;;;;;;;;5133189;28;876;-64
2023/06/23 14:20:47;;;;;;;;;;;;;;;;;;5133489;28;1065;-64
2023/06/23 14:23:13;;;;;;;;;;;;;;;;;;5115337;28;873;-64
2023/06/23 14:25:38;;;;;;;;;;;;;;;;;;5115296;28;833;-64
2023/06/23 14:28:03;;;;;;;;;;;;;;;;;;5133576;28;909;-64
2023/06/23 14:30:29;;;;;;;;;;;;;;;;;;5133438;28;885;-64
2023/06/23 14:32:55;;;;;;;;;;;;;;;;;;5133822;28;1968;-64
2023/06/23 14:35:21;;;;;;;;;;;;;;;;;;5133923;28;868;-64
2023/06/23 14:37:46;;;;;;;;;;;;;;;;;;5133764;28;935;-64
2023/06/23 14:40:11;;;;;;;;;;;;;;;;;;5134012;28;829;-64
2023/06/23 14:42:36;;;;;;;;;;;;;;;;;;5133670;28;852;-65
2023/06/23 14:45:02;;;;;;;;;;;;;;;;;;5134205;28;900;-65
2023/06/23 14:47:27;;;;;;;;;;;;;;;;;;5133377;28;925;-63
2023/06/23 14:49:55;;;;;;;;;;;;;;;;;;5133734;28;837;-63
2023/06/23 14:52:21;;;;;;;;;;;;;;;;;;5132974;28;1909;-63
2023/06/23 14:54:46;;;;;;;;;;;;;;;;;;5133663;28;852;-63
2023/06/23 14:57:11;;;;;;;;;;;;;;;;;;5134087;27;1098;-63
2023/06/23 14:59:37;;;;;;;;;;;;;;;;;;5136887;27;1003;-63
2023/06/23 15:02:02;;;;;;;;;;;;;;;;;;5137195;27;896;-63
2023/06/23 15:04:28;;;;;;;;;;;;;;;;;;5136469;27;849;-63
2023/06/23 15:06:53;;;;;;;;;;;;;;;;;;5137139;27;899;-63
2023/06/23 15:09:18;;;;;;;;;;;;;;;;;;5117897;27;849;-63
2023/06/23 15:11:44;;;;;;;;;;;;;;;;;;5136747;27;1965;-63
2023/06/23 15:14:09;;;;;;;;;;;;;;;;;;5136601;27;924;-64
2023/06/23 15:16:34;;;;;;;;;;;;;;;;;;5136664;27;921;-64
2023/06/23 15:18:59;;;;;;;;;;;;;;;;;;5118281;27;2366;-64
2023/06/23 15:21:25;;;;;;;;;;;;;;;;;;5136484;27;884;-64
2023/06/23 15:23:50;;;;;;;;;;;;;;;;;;5136385;27;1027;-64
2023/06/23 15:26:16;;;;;;;;;;;;;;;;;;5136461;27;829;-62
2023/06/23 15:28:41;;;;;;;;;;;;;;;;;;5136603;27;845;-63
2023/06/23 15:31:06;;;;;;;;;;;;;;;;;;5136650;27;873;-64
2023/06/23 15:33:31;;;;;;;;;;;;;;;;;;5136354;27;1943;-63
2023/06/23 15:35:58;;;;;;;;;;;;;;;;;;5117943;27;1003;-63
2023/06/23 15:38:25;;;;;;;;;;;;;;;;;;5136066;27;904;-63
2023/06/23 15:40:51;;;;;;;;;;;;;;;;;;5136278;27;791;-63
2023/06/23 15:43:16;;;;;;;;;;;;;;;;;;5136207;27;896;-63
2023/06/23 15:45:42;;;;;;;;;;;;;;;;;;5135993;27;864;-65
2023/06/23 15:48:08;;;;;;;;;;;;;;;;;;5136394;27;924;-65
2023/06/23 15:50:38;;;;;;;;;;;;;;;;;;5118348;27;841;-64
2023/06/23 15:53:03;;;;;;;;;;;;;;;;;;5136255;27;1981;-65
2023/06/23 15:55:29;;;;;;;;;;;;;;;;;;5136232;27;932;-64
2023/06/23 15:57:54;;;;;;;;;;;;;;;;;;5136304;27;1508;-63
2023/06/23 16:00:21;;;;;;;;;;;;;;;;;;5135960;27;961;-65
2023/06/23 16:02:47;;;;;;;;;;;;;;;;;;5135737;27;809;-65
2023/06/23 16:05:12;;;;;;;;;;;;;;;;;;5117740;27;908;-64
2023/06/23 16:07:37;;;;;;;;;;;;;;;;;;5135636;27;1081;-65
2023/06/23 16:10:02;;;;;;;;;;;;;;;;;;5135547;27;1047;-65
2023/06/23 16:12:28;;;;;;;;;;;;;;;;;;5136372;27;1917;-64
2023/06/23 16:14:53;;;;;;;;;;;;;;;;;;5136694;27;1274;-64
2023/06/23 16:17:21;;;;;;;;;;;;;;;;;;5137917;27;794;-64
2023/06/23 16:19:46;;;;;;;;;;;;;;;;;;5118167;27;916;-65
2023/06/23 16:22:12;;;;;;;;;;;;;;;;;;5138061;27;1015;-64
2023/06/23 16:24:37;;;;;;;;;;;;;;;;;;5137682;27;1238;-65
2023/06/23 16:27:03;;;;;;;;;;;;;;;;;;5119799;27;1270;-64
2023/06/23 16:29:28;;;;;;;;;;;;;;;;;;5135878;27;1043;-64
2023/06/23 16:31:53;;;;;;;;;;;;;;;;;;5134299;27;1952;-64
2023/06/23 16:34:18;;;;;;;;;;;;;;;;;;5134230;27;861;-65
2023/06/23 16:36:44;;;;;;;;;;;;;;;;;;5135754;27;1023;-64
2023/06/23 16:39:09;;;;;;;;;;;;;;;;;;5116808;27;1232;-64
2023/06/23 16:41:35;;;;;;;;;;;;;;;;;;5136003;27;892;-64
2023/06/23 16:44:00;;;;;;;;;;;;;;;;;;5135930;27;873;-64
2023/06/23 16:46:25;;;;;;;;;;;;;;;;;;5135876;27;865;-64
2023/06/23 16:48:53;;;;;;;;;;;;;;;;;;5117649;27;838;-63
2023/06/23 16:51:18;;;;;;;;;;;;;;;;;;5135281;27;860;-65
2023/06/23 16:53:44;;;;;;;;;;;;;;;;;;5135355;27;1952;-66
2023/06/23 16:56:09;;;;;;;;;;;;;;;;;;5134910;27;1023;-66
2023/06/23 16:58:35;;;;;;;;;;;;;;;;;;5135064;27;1237;-65
2023/06/23 17:01:00;;;;;;;;;;;;;;;;;;5134985;27;1012;-64
2023/06/23 17:03:26;;;;;;;;;;;;;;;;;;5117100;27;900;-64
2023/06/23 17:05:52;;;;;;;;;;;;;;;;;;5134704;27;996;-66
2023/06/23 17:08:20;;;;;;;;;;;;;;;;;;5116393;27;857;-66
2023/06/23 17:10:45;;;;;;;;;;;;;;;;;;5134688;27;857;-66
2023/06/23 17:13:10;;;;;;;;;;;;;;;;;;5135147;27;1977;-68
2023/06/23 17:15:36;;;;;;;;;;;;;;;;;;5134871;27;1007;-65
2023/06/23 17:18:01;;;;;;;;;;;;;;;;;;5134575;27;940;-65
2023/06/23 17:20:26;;;;;;;;;;;;;;;;;;5115242;27;925;-65
2023/06/23 17:22:51;;;;;;;;;;;;;;;;;;5134195;27;1045;-66
2023/06/23 17:25:17;;;;;;;;;;;;;;;;;;5134290;27;996;-66
2023/06/23 17:27:42;;;;;;;;;;;;;;;;;;5134311;27;917;-65
2023/06/23 17:30:09;;;;;;;;;;;;;;;;;;5134734;27;848;-65
2023/06/23 17:32:34;;;;;;;;;;;;;;;;;;5134154;27;1909;-65
2023/06/23 17:34:59;;;;;;;;;;;;;;;;;;5134931;27;908;-66
2023/06/23 17:37:24;;;;;;;;;;;;;;;;;;5134250;27;834;-65
2023/06/23 17:39:50;;;;;;;;;;;;;;;;;;5133410;27;996;-65
2023/06/23 17:42:15;;;;;;;;;;;;;;;;;;5134430;27;912;-65
2023/06/23 17:44:40;;;;;;;;;;;;;;;;;;5133784;27;896;-65
2023/06/23 17:47:05;;;;;;;;;;;;;;;;;;5134061;27;1393;-65
2023/06/23 17:49:31;;;;;;;;;;;;;;;;;;5133615;27;857;-65
2023/06/23 17:51:57;;;;;;;;;;;;;;;;;;5134380;27;1965;-65
2023/06/23 17:54:22;;;;;;;;;;;;;;;;;;5134045;27;1659;-72
2023/06/23 17:56:48;;;;;;;;;;;;;;;;;;5133449;27;1221;-65
2023/06/23 17:59:13;;;;;;;;;;;;;;;;;;5134391;27;857;-65
2023/06/23 18:01:38;;;;;;;;;;;;;;;;;;5113345;28;1034;-65
2023/06/23 18:04:04;;;;;;;;;;;;;;;;;;5134049;28;876;-65
2023/06/23 18:06:30;;;;;;;;;;;;;;;;;;5134061;28;900;-65
2023/06/23 18:08:56;;;;;;;;;;;;;;;;;;5133895;28;841;-65
2023/06/23 18:11:21;;;;;;;;;;;;;;;;;;5134238;28;928;-65
2023/06/23 18:13:47;;;;;;;;;;;;;;;;;;5115719;28;1976;-65
2023/06/23 18:16:12;;;;;;;;;;;;;;;;;;5134146;28;902;-66
2023/06/23 18:18:37;;;;;;;;;;;;;;;;;;5134151;28;861;-64
2023/06/23 18:21:03;;;;;;;;;;;;;;;;;;5134082;28;826;-64
2023/06/23 18:23:28;;;;;;;;;;;;;;;;;;5115782;28;805;-64
2023/06/23 18:25:54;;;;;;;;;;;;;;;;;;5133908;28;889;-65
2023/06/23 18:28:19;;;;;;;;;;;;;;;;;;5133900;28;852;-64
2023/06/23 18:30:44;;;;;;;;;;;;;;;;;;5115165;27;916;-64
2023/06/23 18:33:09;;;;;;;;;;;;;;;;;;5138457;27;1889;-65
2023/06/23 18:35:34;;;;;;;;;;;;;;;;;;5119685;27;1711;-66
2023/06/23 18:38:00;;;;;;;;;;;;;;;;;;5137982;27;999;-65
2023/06/23 18:40:25;;;;;;;;;;;;;;;;;;5137423;27;841;-65
2023/06/23 18:42:51;;;;;;;;;;;;;;;;;;5137149;27;916;-65
2023/06/23 18:45:17;;;;;;;;;;;;;;;;;;5137208;27;833;-65
2023/06/23 18:47:42;;;;;;;;;;;;;;;;;;5137348;27;925;-66
2023/06/23 18:50:08;;;;;;;;;;;;;;;;;;5137556;27;861;-66
2023/06/23 18:52:33;;;;;;;;;;;;;;;;;;5137311;27;1897;-64
2023/06/23 18:54:59;;;;;;;;;;;;;;;;;;5137478;27;829;-65
2023/06/23 18:57:24;;;;;;;;;;;;;;;;;;5137092;27;1130;-66
2023/06/23 18:59:50;;;;;;;;;;;;;;;;;;5137501;27;920;-65
2023/06/23 19:02:15;;;;;;;;;;;;;;;;;;5137326;27;850;-65
2023/06/23 19:04:40;;;;;;;;;;;;;;;;;;5137404;27;932;-64